Mc Rae, Georgia
Current Conditions -  °F | °C
As of 10:35 PM on Saturday 22 Nov 2014 (Local Time) from KAZE Reporting Station
Moderate Rain Moderate Rain  
Wind Chill: 59°   Ceiling: 5000
Heat Index: 59°   Visibility: 10mi
Dew Point: 58°   Wind: 7mph
Humidity: 96%   Direction: 80°E
Pressure: 30.21"   Gusts: NA
Location:  31.9833°N, 82.8682°W
Report Text: KAZE 230335Z AUTO 08006KT 10SM RA SCT011 BKN050 OVC070 15/14 A3021 RMK AO2 T01510144
Loading
Personal Weather Stations






























Interactive Weather Map New forecast layout! Learn more

10-Day Weather Forecast

Advertisements
Track Severe Weather on mobile